sensor_id;sensor_type;location;lat;lon;timestamp;pressure;altitude;pressure_sealevel;temperature;humidity
21828;BME280;11076;47.942;11.804;2022-08-25T00:04:30;94495.75;;;14.76;100.00
21828;BME280;11076;47.942;11.804;2022-08-25T00:09:33;94493.06;;;14.76;100.00
21828;BME280;11076;47.942;11.804;2022-08-25T00:14:37;94486.78;;;14.70;100.00
21828;BME280;11076;47.942;11.804;2022-08-25T00:19:39;94488.56;;;14.64;100.00
21828;BME280;11076;47.942;11.804;2022-08-25T00:24:42;94480.03;;;14.56;100.00
21828;BME280;11076;47.942;11.804;2022-08-25T00:29:44;94481.22;;;14.60;100.00
21828;BME280;11076;47.942;11.804;2022-08-25T00:34:46;94477.13;;;14.57;100.00
21828;BME280;11076;47.942;11.804;2022-08-25T00:39:49;94483.00;;;14.42;100.00
21828;BME280;11076;47.942;11.804;2022-08-25T00:44:51;94481.50;;;14.46;100.00
21828;BME280;11076;47.942;11.804;2022-08-25T00:49:57;94470.06;;;14.39;100.00
21828;BME280;11076;47.942;11.804;2022-08-25T01:00:17;94474.75;;;14.32;100.00
21828;BME280;11076;47.942;11.804;2022-08-25T01:05:20;94475.25;;;14.29;100.00
21828;BME280;11076;47.942;11.804;2022-08-25T01:10:25;94473.41;;;14.18;100.00
21828;BME280;11076;47.942;11.804;2022-08-25T01:15:29;94474.81;;;14.08;100.00
21828;BME280;11076;47.942;11.804;2022-08-25T01:20:32;94467.72;;;14.02;100.00
21828;BME280;11076;47.942;11.804;2022-08-25T01:31:00;94469.84;;;13.88;100.00
21828;BME280;11076;47.942;11.804;2022-08-25T01:36:03;94458.09;;;13.78;100.00
21828;BME280;11076;47.942;11.804;2022-08-25T01:41:06;94468.97;;;13.71;100.00
21828;BME280;11076;47.942;11.804;2022-08-25T01:46:08;94466.41;;;13.64;100.00
21828;BME280;11076;47.942;11.804;2022-08-25T01:51:13;94456.72;;;13.63;100.00
21828;BME280;11076;47.942;11.804;2022-08-25T01:56:17;94473.28;;;13.60;100.00
21828;BME280;11076;47.942;11.804;2022-08-25T02:01:22;94463.03;;;13.57;100.00
21828;BME280;11076;47.942;11.804;2022-08-25T02:06:30;94463.72;;;13.52;100.00
21828;BME280;11076;47.942;11.804;2022-08-25T02:11:38;94464.06;;;13.44;100.00
21828;BME280;11076;47.942;11.804;2022-08-25T02:16:46;94453.94;;;13.35;100.00
21828;BME280;11076;47.942;11.804;2022-08-25T02:21:49;94466.78;;;13.32;100.00
21828;BME280;11076;47.942;11.804;2022-08-25T02:26:52;94461.88;;;13.29;100.00
21828;BME280;11076;47.942;11.804;2022-08-25T02:31:55;94454.03;;;13.28;100.00
21828;BME280;11076;47.942;11.804;2022-08-25T02:36:57;94458.13;;;13.30;100.00
21828;BME280;11076;47.942;11.804;2022-08-25T02:42:00;94447.03;;;13.39;100.00
21828;BME280;11076;47.942;11.804;2022-08-25T02:47:03;94450.28;;;13.29;100.00
21828;BME280;11076;47.942;11.804;2022-08-25T02:52:05;94449.94;;;13.25;100.00
21828;BME280;11076;47.942;11.804;2022-08-25T02:57:08;94442.72;;;13.38;100.00
21828;BME280;11076;47.942;11.804;2022-08-25T03:02:14;94435.03;;;13.29;100.00
21828;BME280;11076;47.942;11.804;2022-08-25T03:07:17;94440.03;;;13.38;100.00
21828;BME280;11076;47.942;11.804;2022-08-25T03:12:20;94429.41;;;13.43;100.00
21828;BME280;11076;47.942;11.804;2022-08-25T03:17:23;94431.41;;;13.36;100.00
21828;BME280;11076;47.942;11.804;2022-08-25T03:22:26;94426.63;;;13.38;100.00
21828;BME280;11076;47.942;11.804;2022-08-25T03:27:29;94432.44;;;13.35;100.00
21828;BME280;11076;47.942;11.804;2022-08-25T03:32:32;94432.34;;;13.29;100.00
21828;BME280;11076;47.942;11.804;2022-08-25T03:37:35;94426.97;;;13.29;100.00
21828;BME280;11076;47.942;11.804;2022-08-25T03:42:42;94428.13;;;13.33;100.00
21828;BME280;11076;47.942;11.804;2022-08-25T03:47:47;94423.22;;;13.30;100.00
21828;BME280;11076;47.942;11.804;2022-08-25T03:52:54;94424.38;;;13.23;100.00
21828;BME280;11076;47.942;11.804;2022-08-25T03:57:57;94427.66;;;13.13;100.00
21828;BME280;11076;47.942;11.804;2022-08-25T04:02:59;94427.06;;;12.99;100.00
21828;BME280;11076;47.942;11.804;2022-08-25T04:08:02;94431.38;;;12.88;100.00
21828;BME280;11076;47.942;11.804;2022-08-25T04:13:05;94428.91;;;12.99;100.00
21828;BME280;11076;47.942;11.804;2022-08-25T04:18:09;94437.78;;;13.11;100.00
21828;BME280;11076;47.942;11.804;2022-08-25T04:23:12;94436.88;;;13.41;100.00
21828;BME280;11076;47.942;11.804;2022-08-25T04:28:15;94440.38;;;13.53;100.00
21828;BME280;11076;47.942;11.804;2022-08-25T04:33:17;94436.38;;;13.67;100.00
21828;BME280;11076;47.942;11.804;2022-08-25T04:38:20;94443.13;;;13.82;100.00
21828;BME280;11076;47.942;11.804;2022-08-25T04:43:22;94436.41;;;13.96;100.00
21828;BME280;11076;47.942;11.804;2022-08-25T04:48:25;94442.72;;;14.02;100.00
21828;BME280;11076;47.942;11.804;2022-08-25T04:53:27;94439.53;;;14.17;100.00
21828;BME280;11076;47.942;11.804;2022-08-25T04:58:30;94430.69;;;14.33;100.00
21828;BME280;11076;47.942;11.804;2022-08-25T05:03:32;94436.13;;;14.38;100.00
21828;BME280;11076;47.942;11.804;2022-08-25T05:08:34;94432.97;;;14.70;100.00
21828;BME280;11076;47.942;11.804;2022-08-25T05:13:37;94426.94;;;15.14;100.00
21828;BME280;11076;47.942;11.804;2022-08-25T05:18:40;94431.50;;;15.30;100.00
21828;BME280;11076;47.942;11.804;2022-08-25T05:23:43;94423.66;;;15.28;100.00
21828;BME280;11076;47.942;11.804;2022-08-25T05:28:46;94424.66;;;15.22;100.00
21828;BME280;11076;47.942;11.804;2022-08-25T05:33:50;94423.00;;;15.21;100.00
21828;BME280;11076;47.942;11.804;2022-08-25T05:38:53;94416.16;;;15.30;100.00
21828;BME280;11076;47.942;11.804;2022-08-25T05:43:56;94422.22;;;15.60;100.00
21828;BME280;11076;47.942;11.804;2022-08-25T05:48:59;94414.09;;;15.77;100.00
21828;BME280;11076;47.942;11.804;2022-08-25T05:54:01;94413.72;;;15.90;100.00
21828;BME280;11076;47.942;11.804;2022-08-25T05:59:04;94415.41;;;16.18;100.00
21828;BME280;11076;47.942;11.804;2022-08-25T06:04:10;94423.25;;;16.20;100.00
21828;BME280;11076;47.942;11.804;2022-08-25T06:09:12;94417.56;;;16.43;100.00
21828;BME280;11076;47.942;11.804;2022-08-25T06:14:15;94399.75;;;20.18;95.68
21828;BME280;11076;47.942;11.804;2022-08-25T06:19:18;94399.69;;;17.82;100.00
21828;BME280;11076;47.942;11.804;2022-08-25T06:24:21;94402.06;;;17.25;100.00
21828;BME280;11076;47.942;11.804;2022-08-25T06:29:23;94392.81;;;17.16;100.00
21828;BME280;11076;47.942;11.804;2022-08-25T06:34:26;94389.94;;;17.28;100.00
21828;BME280;11076;47.942;11.804;2022-08-25T06:39:29;94394.34;;;17.44;100.00
21828;BME280;11076;47.942;11.804;2022-08-25T06:44:31;94395.22;;;17.55;100.00
21828;BME280;11076;47.942;11.804;2022-08-25T06:49:34;94407.75;;;17.72;98.77
21828;BME280;11076;47.942;11.804;2022-08-25T06:54:37;94396.78;;;17.94;97.85
21828;BME280;11076;47.942;11.804;2022-08-25T06:59:40;94411.22;;;18.20;96.73
21828;BME280;11076;47.942;11.804;2022-08-25T07:04:42;94408.03;;;18.43;95.57
21828;BME280;11076;47.942;11.804;2022-08-25T07:09:45;94410.75;;;18.64;93.96
21828;BME280;11076;47.942;11.804;2022-08-25T07:14:47;94411.91;;;18.94;92.89
21828;BME280;11076;47.942;11.804;2022-08-25T07:19:54;94409.47;;;19.13;91.76
21828;BME280;11076;47.942;11.804;2022-08-25T07:24:56;94401.59;;;19.37;91.27
21828;BME280;11076;47.942;11.804;2022-08-25T07:29:59;94400.78;;;19.46;89.33
21828;BME280;11076;47.942;11.804;2022-08-25T07:35:01;94402.34;;;19.78;88.49
21828;BME280;11076;47.942;11.804;2022-08-25T07:40:20;94395.50;;;19.91;86.87
21828;BME280;11076;47.942;11.804;2022-08-25T07:45:25;94391.94;;;20.06;85.73
21828;BME280;11076;47.942;11.804;2022-08-25T07:50:32;94397.59;;;20.15;84.40
21828;BME280;11076;47.942;11.804;2022-08-25T07:55:35;94402.38;;;20.33;83.03
21828;BME280;11076;47.942;11.804;2022-08-25T08:00:38;94405.28;;;20.52;82.04
21828;BME280;11076;47.942;11.804;2022-08-25T08:05:42;94413.91;;;20.64;81.33
21828;BME280;11076;47.942;11.804;2022-08-25T08:10:44;94409.28;;;20.65;80.37
21828;BME280;11076;47.942;11.804;2022-08-25T08:16:10;94409.25;;;20.75;79.79
21828;BME280;11076;47.942;11.804;2022-08-25T08:21:21;94414.53;;;20.96;78.90
21828;BME280;11076;47.942;11.804;2022-08-25T08:26:24;94410.06;;;21.10;77.07
21828;BME280;11076;47.942;11.804;2022-08-25T08:31:32;94410.56;;;21.17;76.36
21828;BME280;11076;47.942;11.804;2022-08-25T08:36:35;94410.38;;;21.38;76.66
21828;BME280;11076;47.942;11.804;2022-08-25T08:41:47;94416.00;;;21.47;75.80
21828;BME280;11076;47.942;11.804;2022-08-25T08:52:43;94379.88;;;21.70;73.59
21828;BME280;11076;47.942;11.804;2022-08-25T08:57:50;94383.88;;;21.78;72.62
21828;BME280;11076;47.942;11.804;2022-08-25T09:03:13;94388.13;;;21.89;73.30
21828;BME280;11076;47.942;11.804;2022-08-25T09:08:17;94391.81;;;21.98;72.27
21828;BME280;11076;47.942;11.804;2022-08-25T09:19:02;94376.38;;;22.56;71.47
21828;BME280;11076;47.942;11.804;2022-08-25T09:29:48;94375.13;;;22.67;70.31
21828;BME280;11076;47.942;11.804;2022-08-25T09:34:55;94376.63;;;22.78;70.19
21828;BME280;11076;47.942;11.804;2022-08-25T09:39:58;94375.44;;;22.84;68.83
21828;BME280;11076;47.942;11.804;2022-08-25T09:45:00;94370.84;;;22.99;69.32
21828;BME280;11076;47.942;11.804;2022-08-25T09:50:03;94371.47;;;23.29;68.32
21828;BME280;11076;47.942;11.804;2022-08-25T10:05:27;94356.47;;;23.59;66.44
21828;BME280;11076;47.942;11.804;2022-08-25T10:10:36;94349.69;;;23.56;67.45
21828;BME280;11076;47.942;11.804;2022-08-25T10:15:39;94346.34;;;23.46;66.50
21828;BME280;11076;47.942;11.804;2022-08-25T10:20:42;94351.88;;;23.27;67.56
21828;BME280;11076;47.942;11.804;2022-08-25T10:25:46;94348.78;;;23.47;68.60
21828;BME280;11076;47.942;11.804;2022-08-25T10:31:04;94339.38;;;23.53;68.13
21828;BME280;11076;47.942;11.804;2022-08-25T10:36:19;94341.94;;;24.05;66.73
21828;BME280;11076;47.942;11.804;2022-08-25T10:46:48;94336.88;;;24.26;65.13
21828;BME280;11076;47.942;11.804;2022-08-25T10:52:03;94334.41;;;24.38;63.92
21828;BME280;11076;47.942;11.804;2022-08-25T10:57:34;94333.19;;;24.45;64.50
21828;BME280;11076;47.942;11.804;2022-08-25T11:08:14;94326.78;;;25.08;63.66
21828;BME280;11076;47.942;11.804;2022-08-25T11:19:27;94313.78;;;25.68;60.54
21828;BME280;11076;47.942;11.804;2022-08-25T11:29:55;94306.75;;;26.33;58.72
21828;BME280;11076;47.942;11.804;2022-08-25T11:35:03;94299.19;;;25.90;58.09
21828;BME280;11076;47.942;11.804;2022-08-25T11:45:58;94302.13;;;25.53;58.41
21828;BME280;11076;47.942;11.804;2022-08-25T11:51:10;94299.31;;;25.13;59.97
21828;BME280;11076;47.942;11.804;2022-08-25T11:56:35;94289.31;;;25.31;60.11
21828;BME280;11076;47.942;11.804;2022-08-25T12:17:37;94279.97;;;26.30;57.56
21828;BME280;11076;47.942;11.804;2022-08-25T12:22:42;94282.59;;;26.52;56.30
21828;BME280;11076;47.942;11.804;2022-08-25T12:28:22;94282.25;;;26.36;55.16
21828;BME280;11076;47.942;11.804;2022-08-25T12:34:15;94287.22;;;26.26;55.55
21828;BME280;11076;47.942;11.804;2022-08-25T12:39:28;94290.78;;;26.26;55.66
21828;BME280;11076;47.942;11.804;2022-08-25T12:44:44;94281.81;;;26.61;54.62
21828;BME280;11076;47.942;11.804;2022-08-25T12:49:50;94283.69;;;26.43;55.08
21828;BME280;11076;47.942;11.804;2022-08-25T12:55:02;94272.44;;;26.62;55.66
21828;BME280;11076;47.942;11.804;2022-08-25T13:00:24;94267.38;;;26.20;54.29
21828;BME280;11076;47.942;11.804;2022-08-25T13:11:13;94261.06;;;25.93;55.77
21828;BME280;11076;47.942;11.804;2022-08-25T13:16:22;94249.03;;;26.47;55.44
21828;BME280;11076;47.942;11.804;2022-08-25T13:21:39;94247.75;;;26.62;55.49
21828;BME280;11076;47.942;11.804;2022-08-25T13:26:42;94246.34;;;26.64;55.93
21828;BME280;11076;47.942;11.804;2022-08-25T13:37:10;94243.06;;;26.45;54.87
21828;BME280;11076;47.942;11.804;2022-08-25T13:42:31;94237.72;;;26.22;55.52
21828;BME280;11076;47.942;11.804;2022-08-25T13:47:36;94234.69;;;26.15;57.01
21828;BME280;11076;47.942;11.804;2022-08-25T13:52:40;94241.59;;;26.04;57.47
21828;BME280;11076;47.942;11.804;2022-08-25T13:57:43;94231.47;;;26.56;56.25
21828;BME280;11076;47.942;11.804;2022-08-25T14:02:49;94228.97;;;27.16;53.29
21828;BME280;11076;47.942;11.804;2022-08-25T14:07:53;94228.56;;;27.44;51.92
21828;BME280;11076;47.942;11.804;2022-08-25T14:13:28;94226.44;;;27.88;51.69
21828;BME280;11076;47.942;11.804;2022-08-25T14:18:33;94222.25;;;28.32;50.98
21828;BME280;11076;47.942;11.804;2022-08-25T14:23:37;94231.69;;;28.02;49.47
21828;BME280;11076;47.942;11.804;2022-08-25T14:28:40;94226.66;;;28.04;49.70
21828;BME280;11076;47.942;11.804;2022-08-25T14:33:47;94222.16;;;27.99;49.91
21828;BME280;11076;47.942;11.804;2022-08-25T14:38:52;94224.53;;;28.09;50.03
21828;BME280;11076;47.942;11.804;2022-08-25T14:43:56;94216.47;;;28.46;49.30
21828;BME280;11076;47.942;11.804;2022-08-25T14:49:05;94220.97;;;28.30;50.46
21828;BME280;11076;47.942;11.804;2022-08-25T14:54:12;94213.16;;;28.20;50.18
21828;BME280;11076;47.942;11.804;2022-08-25T14:59:16;94206.75;;;28.49;49.96
21828;BME280;11076;47.942;11.804;2022-08-25T15:04:22;94206.72;;;28.58;49.03
21828;BME280;11076;47.942;11.804;2022-08-25T15:09:28;94209.53;;;28.28;48.97
21828;BME280;11076;47.942;11.804;2022-08-25T15:14:31;94198.19;;;28.29;49.40
21828;BME280;11076;47.942;11.804;2022-08-25T15:19:33;94199.69;;;27.67;47.86
21828;BME280;11076;47.942;11.804;2022-08-25T15:24:36;94202.44;;;27.37;50.17
21828;BME280;11076;47.942;11.804;2022-08-25T15:29:41;94189.81;;;27.75;50.17
21828;BME280;11076;47.942;11.804;2022-08-25T15:34:44;94190.66;;;27.67;50.26
21828;BME280;11076;47.942;11.804;2022-08-25T15:39:46;94185.38;;;27.62;50.61
21828;BME280;11076;47.942;11.804;2022-08-25T15:44:49;94196.94;;;26.90;53.04
21828;BME280;11076;47.942;11.804;2022-08-25T15:50:01;94202.94;;;26.66;54.94
21828;BME280;11076;47.942;11.804;2022-08-25T15:55:05;94191.81;;;26.28;56.04
21828;BME280;11076;47.942;11.804;2022-08-25T16:00:09;94196.00;;;25.99;57.06
21828;BME280;11076;47.942;11.804;2022-08-25T16:05:13;94191.75;;;25.67;58.31
21828;BME280;11076;47.942;11.804;2022-08-25T16:10:16;94198.06;;;25.36;59.88
21828;BME280;11076;47.942;11.804;2022-08-25T16:15:18;94188.78;;;25.14;60.75
21828;BME280;11076;47.942;11.804;2022-08-25T16:20:21;94190.22;;;25.03;61.76
21828;BME280;11076;47.942;11.804;2022-08-25T16:25:24;94195.81;;;24.98;62.21
21828;BME280;11076;47.942;11.804;2022-08-25T16:30:27;94188.25;;;24.95;62.00
21828;BME280;11076;47.942;11.804;2022-08-25T16:35:29;94191.09;;;24.90;62.27
21828;BME280;11076;47.942;11.804;2022-08-25T16:40:32;94193.78;;;24.81;61.96
21828;BME280;11076;47.942;11.804;2022-08-25T16:45:35;94193.34;;;24.88;62.28
21828;BME280;11076;47.942;11.804;2022-08-25T16:50:38;94191.56;;;24.60;63.21
21828;BME280;11076;47.942;11.804;2022-08-25T16:55:40;94192.34;;;24.38;64.02
21828;BME280;11076;47.942;11.804;2022-08-25T17:00:43;94187.16;;;24.28;64.60
21828;BME280;11076;47.942;11.804;2022-08-25T17:05:45;94185.81;;;24.03;65.64
21828;BME280;11076;47.942;11.804;2022-08-25T17:10:48;94184.47;;;23.78;66.88
21828;BME280;11076;47.942;11.804;2022-08-25T17:15:50;94183.78;;;23.58;68.00
21828;BME280;11076;47.942;11.804;2022-08-25T17:21:00;94185.00;;;23.38;69.02
21828;BME280;11076;47.942;11.804;2022-08-25T17:26:04;94187.31;;;23.17;70.11
21828;BME280;11076;47.942;11.804;2022-08-25T17:31:08;94187.41;;;22.98;71.22
21828;BME280;11076;47.942;11.804;2022-08-25T17:36:11;94190.50;;;22.92;72.05
21828;BME280;11076;47.942;11.804;2022-08-25T17:41:16;94189.91;;;22.81;72.24
21828;BME280;11076;47.942;11.804;2022-08-25T17:46:19;94187.94;;;22.68;72.54
21828;BME280;11076;47.942;11.804;2022-08-25T17:51:21;94191.56;;;22.30;74.55
21828;BME280;11076;47.942;11.804;2022-08-25T17:56:25;94192.53;;;22.01;75.86
21828;BME280;11076;47.942;11.804;2022-08-25T18:01:31;94193.28;;;21.69;77.83
21828;BME280;11076;47.942;11.804;2022-08-25T18:06:34;94190.47;;;21.55;79.06
21828;BME280;11076;47.942;11.804;2022-08-25T18:11:36;94200.47;;;21.36;80.75
21828;BME280;11076;47.942;11.804;2022-08-25T18:16:39;94205.56;;;21.18;82.50
21828;BME280;11076;47.942;11.804;2022-08-25T18:21:41;94205.34;;;21.15;82.44
21828;BME280;11076;47.942;11.804;2022-08-25T18:26:44;94211.00;;;21.18;82.50
21828;BME280;11076;47.942;11.804;2022-08-25T18:31:47;94210.78;;;21.15;82.98
21828;BME280;11076;47.942;11.804;2022-08-25T18:36:50;94213.34;;;21.06;83.83
21828;BME280;11076;47.942;11.804;2022-08-25T18:41:52;94213.94;;;21.03;84.26
21828;BME280;11076;47.942;11.804;2022-08-25T18:46:55;94220.44;;;21.02;84.52
21828;BME280;11076;47.942;11.804;2022-08-25T18:51:57;94219.91;;;21.00;84.65
21828;BME280;11076;47.942;11.804;2022-08-25T18:56:59;94222.16;;;20.93;85.16
21828;BME280;11076;47.942;11.804;2022-08-25T19:02:02;94229.63;;;20.82;86.11
21828;BME280;11076;47.942;11.804;2022-08-25T19:07:04;94222.53;;;20.81;86.48
21828;BME280;11076;47.942;11.804;2022-08-25T19:12:07;94224.53;;;20.75;87.29
21828;BME280;11076;47.942;11.804;2022-08-25T19:17:09;94216.41;;;20.70;88.25
21828;BME280;11076;47.942;11.804;2022-08-25T19:22:12;94219.13;;;20.70;88.30
21828;BME280;11076;47.942;11.804;2022-08-25T19:27:22;94213.69;;;20.70;88.79
21828;BME280;11076;47.942;11.804;2022-08-25T19:32:26;94216.06;;;20.77;88.88
21828;BME280;11076;47.942;11.804;2022-08-25T19:37:28;94208.22;;;20.75;88.92
21828;BME280;11076;47.942;11.804;2022-08-25T19:42:31;94207.75;;;20.68;89.12
21828;BME280;11076;47.942;11.804;2022-08-25T19:47:38;94216.00;;;20.53;89.94
21828;BME280;11076;47.942;11.804;2022-08-25T19:52:43;94221.69;;;20.51;90.34
21828;BME280;11076;47.942;11.804;2022-08-25T19:57:45;94225.50;;;20.55;90.74
21828;BME280;11076;47.942;11.804;2022-08-25T20:02:48;94220.13;;;20.45;90.89
21828;BME280;11076;47.942;11.804;2022-08-25T20:07:54;94218.44;;;20.20;92.35
21828;BME280;11076;47.942;11.804;2022-08-25T20:12:58;94216.63;;;20.10;93.26
21828;BME280;11076;47.942;11.804;2022-08-25T20:18:00;94223.44;;;20.02;93.48
21828;BME280;11076;47.942;11.804;2022-08-25T20:23:03;94221.34;;;19.94;93.87
21828;BME280;11076;47.942;11.804;2022-08-25T20:28:24;94233.53;;;19.97;94.47
21828;BME280;11076;47.942;11.804;2022-08-25T20:33:26;94220.84;;;19.87;94.59
21828;BME280;11076;47.942;11.804;2022-08-25T20:38:29;94220.66;;;19.68;95.71
21828;BME280;11076;47.942;11.804;2022-08-25T20:43:33;94217.75;;;19.49;97.07
21828;BME280;11076;47.942;11.804;2022-08-25T20:48:35;94223.78;;;19.41;97.49
21828;BME280;11076;47.942;11.804;2022-08-25T20:53:40;94222.69;;;19.37;97.76
21828;BME280;11076;47.942;11.804;2022-08-25T20:58:43;94219.50;;;19.24;98.41
21828;BME280;11076;47.942;11.804;2022-08-25T21:03:47;94216.84;;;19.14;98.73
21828;BME280;11076;47.942;11.804;2022-08-25T21:08:50;94217.16;;;19.02;99.53
21828;BME280;11076;47.942;11.804;2022-08-25T21:13:53;94208.75;;;18.94;100.00
21828;BME280;11076;47.942;11.804;2022-08-25T21:18:56;94206.63;;;18.85;100.00
21828;BME280;11076;47.942;11.804;2022-08-25T21:23:59;94214.75;;;18.75;100.00
21828;BME280;11076;47.942;11.804;2022-08-25T21:29:03;94213.16;;;18.59;100.00
21828;BME280;11076;47.942;11.804;2022-08-25T21:34:06;94213.69;;;18.56;100.00
21828;BME280;11076;47.942;11.804;2022-08-25T21:39:09;94210.97;;;18.56;100.00
21828;BME280;11076;47.942;11.804;2022-08-25T21:44:12;94215.59;;;18.55;100.00
21828;BME280;11076;47.942;11.804;2022-08-25T21:49:15;94211.00;;;18.51;100.00
21828;BME280;11076;47.942;11.804;2022-08-25T21:54:18;94212.06;;;18.49;100.00
21828;BME280;11076;47.942;11.804;2022-08-25T21:59:23;94207.19;;;18.52;100.00
21828;BME280;11076;47.942;11.804;2022-08-25T22:04:26;94207.75;;;18.38;100.00
21828;BME280;11076;47.942;11.804;2022-08-25T22:09:29;94199.63;;;18.33;100.00
21828;BME280;11076;47.942;11.804;2022-08-25T22:14:33;94199.38;;;18.29;100.00
21828;BME280;11076;47.942;11.804;2022-08-25T22:19:35;94195.31;;;18.27;100.00
21828;BME280;11076;47.942;11.804;2022-08-25T22:24:38;94185.84;;;18.24;100.00
21828;BME280;11076;47.942;11.804;2022-08-25T22:29:40;94183.94;;;18.20;100.00
21828;BME280;11076;47.942;11.804;2022-08-25T22:34:43;94188.00;;;18.12;100.00
21828;BME280;11076;47.942;11.804;2022-08-25T22:39:47;94187.72;;;18.14;100.00
21828;BME280;11076;47.942;11.804;2022-08-25T22:44:49;94186.38;;;18.16;100.00
21828;BME280;11076;47.942;11.804;2022-08-25T22:49:52;94186.66;;;18.15;100.00
21828;BME280;11076;47.942;11.804;2022-08-25T22:54:56;94175.28;;;18.07;100.00
21828;BME280;11076;47.942;11.804;2022-08-25T22:59:59;94180.72;;;18.07;100.00
21828;BME280;11076;47.942;11.804;2022-08-25T23:05:01;94180.41;;;18.14;100.00
21828;BME280;11076;47.942;11.804;2022-08-25T23:10:07;94174.47;;;18.12;100.00
21828;BME280;11076;47.942;11.804;2022-08-25T23:15:11;94169.88;;;18.07;100.00
21828;BME280;11076;47.942;11.804;2022-08-25T23:20:13;94172.06;;;18.05;100.00
21828;BME280;11076;47.942;11.804;2022-08-25T23:25:38;94164.19;;;18.04;100.00
21828;BME280;11076;47.942;11.804;2022-08-25T23:30:41;94176.38;;;18.01;100.00
21828;BME280;11076;47.942;11.804;2022-08-25T23:35:44;94157.44;;;17.96;100.00
21828;BME280;11076;47.942;11.804;2022-08-25T23:40:47;94165.56;;;18.01;100.00
21828;BME280;11076;47.942;11.804;2022-08-25T23:45:50;94161.25;;;17.95;100.00
21828;BME280;11076;47.942;11.804;2022-08-25T23:50:52;94156.38;;;17.87;100.00
21828;BME280;11076;47.942;11.804;2022-08-25T23:55:56;94164.44;;;17.82;100.00
